aviador You're here:

K1YT Decoded Metar

in
Report Time2017-03-30 17:56:00
UTC Time2017-03-30 18:29:47
Flight Rules vfr VFR
Wind320° at 19 Gusting to 25 kt
W.Rank320° ranks 23
Current wind is above 320° avg. (5.1)
Visibility9999 m
Phenomena:N/A
Clouds:N/A
Expected CloudBase > 5,200 ft AGL from Temp-Dew spread
CeilingNone
Temp11°C
Dew Point-2°C (41% RH)
AAT1.9°C
QNH1016 hPa
Raw Report
METAR K1YT 301756Z AUTO 32019G25KT 10SM CLR 11/M02 A2999 RMK AO2 PK
WND 34027/29 SLPNO T01121024 10112 20006 51009 $=

Extra information for K1YT:More info

Social comments